Time;durP1;ratioP1;P1;durP2;ratioP2;P2;SDS_P1;SDS_P2;PMS_P1;PMS_P2;Temp;Humidity;BMP_temperature;BMP_pressure;BME280_temperature;BME280_humidity;BME280_pressure;Samples;Min_cycle;Max_cycle;Signal;HPM_P1;HPM_P2
2022/04/29 00:00:19;;;;;;;14.52;9.88;;;9.00;65.70;;;7.68;64.88;97039.31;4891797;28;20623;-62
2022/04/29 00:02:46;;;;;;;12.50;9.57;;;9.00;66.00;;;7.66;65.33;97024.72;4910467;28;20536;-63
2022/04/29 00:05:13;;;;;;;13.45;10.43;;;9.00;65.90;;;7.65;65.43;97018.66;4900008;28;20292;-63
2022/04/29 00:07:39;;;;;;;12.65;9.65;;;9.10;66.00;;;7.63;65.30;97014.53;4914252;28;21572;-63
2022/04/29 00:10:15;;;;;;;12.70;9.43;;;9.00;66.00;;;7.63;67.63;97019.78;4855832;28;20430;-63
2022/04/29 00:12:43;;;;;;;13.18;9.98;;;9.00;66.50;;;7.59;65.57;97021.03;4891440;28;20415;-63
2022/04/29 00:15:11;;;;;;;11.30;9.38;;;8.90;66.90;;;7.57;66.03;97017.75;4883318;28;20853;-63
2022/04/29 00:17:37;;;;;;;12.50;9.38;;;8.90;66.60;;;7.54;65.88;97010.19;4885608;28;20372;-63
2022/04/29 00:20:05;;;;;;;14.23;10.15;;;8.90;66.70;;;7.51;66.44;97010.50;4872049;28;20427;-64
2022/04/29 00:22:31;;;;;;;12.95;10.40;;;8.80;67.00;;;7.47;65.88;97022.22;4870751;28;20755;-63
2022/04/29 00:24:57;;;;;;;12.88;9.73;;;8.70;67.60;;;7.45;66.14;97011.88;4871742;28;20211;-63
2022/04/29 00:27:23;;;;;;;12.57;9.82;;;8.70;67.20;;;7.47;66.01;97014.34;4883923;28;20410;-62
2022/04/29 00:29:49;;;;;;;12.73;10.00;;;8.80;66.60;;;7.45;66.25;97013.69;4881175;28;20486;-63
2022/04/29 00:32:16;;;;;;;13.30;9.93;;;8.80;66.50;;;7.43;66.74;97016.44;4901698;28;20356;-64
2022/04/29 00:34:41;;;;;;;13.02;9.65;;;8.80;66.80;;;7.41;66.18;97012.34;4886957;28;20368;-63
2022/04/29 00:37:08;;;;;;;11.85;9.45;;;8.70;66.20;;;7.38;66.12;97001.19;4886415;28;20767;-63
2022/04/29 00:39:34;;;;;;;14.40;10.88;;;8.60;65.90;;;7.34;65.47;96997.22;4869361;28;20430;-63
2022/04/29 00:42:00;;;;;;;12.48;9.95;;;8.60;66.20;;;7.32;65.61;96996.56;4880610;28;20365;-63
2022/04/29 00:44:26;;;;;;;13.68;10.73;;;8.60;66.40;;;7.30;66.23;96995.06;4900928;28;20382;-63
2022/04/29 00:46:52;;;;;;;15.25;10.38;;;8.60;66.80;;;7.27;66.35;96990.13;4869828;28;20348;-63
2022/04/29 00:49:18;;;;;;;14.88;10.60;;;8.60;66.80;;;7.26;66.51;96997.16;4917236;28;20330;-63
2022/04/29 00:51:49;;;;;;;16.20;10.07;;;8.60;66.40;;;7.24;67.09;96999.09;4888695;28;20403;-63
2022/04/29 00:54:25;;;;;;;16.15;10.75;;;8.60;66.90;;;7.21;67.93;96991.50;4885866;28;20506;-63
2022/04/29 00:56:52;;;;;;;14.95;10.80;;;8.60;67.20;;;7.18;67.55;96993.59;4895397;28;20597;-63
2022/04/29 00:59:52;;;;;;;14.73;10.07;;;8.50;67.50;;;7.16;69.56;96980.66;4871592;28;20415;-63
2022/04/29 01:02:18;;;;;;;13.63;10.07;;;8.50;67.90;;;7.15;67.13;96988.66;4891356;28;20405;-63
2022/04/29 01:05:09;;;;;;;13.77;10.57;;;8.50;67.60;;;7.13;69.26;96991.41;4891568;28;20360;-63
2022/04/29 01:07:36;;;;;;;;;;;8.40;67.80;;;7.08;69.48;96977.94;4903846;28;20595;-63
2022/04/29 01:10:03;;;;;;;13.15;10.10;;;8.40;67.50;;;7.07;67.22;96971.06;4881536;28;20504;-63
2022/04/29 01:12:35;;;;;;;13.43;9.90;;;8.40;67.70;;;7.07;68.87;96963.22;4893351;28;20368;-63
2022/04/29 01:15:08;;;;;;;13.48;9.82;;;8.50;67.80;;;7.06;68.14;96969.44;4869413;28;20412;-62
2022/04/29 01:17:35;;;;;;;11.75;9.65;;;8.40;68.10;;;7.04;67.78;96964.34;4873754;28;20801;-63
2022/04/29 01:20:07;;;;;;;13.30;9.73;;;8.40;68.20;;;7.03;69.39;96954.03;4848751;28;20353;-63
2022/04/29 01:22:33;;;;;;;15.50;10.43;;;8.40;68.10;;;6.99;67.83;96955.25;4873301;28;20372;-63
2022/04/29 01:24:59;;;;;;;14.88;10.45;;;8.40;68.40;;;6.96;68.20;96958.19;4904361;28;20447;-63
2022/04/29 01:27:25;;;;;;;13.38;9.85;;;8.30;68.00;;;6.92;67.73;96962.06;4892865;28;20311;-63
2022/04/29 01:30:02;;;;;;;11.90;10.23;;;8.30;68.50;;;6.89;70.38;96972.81;4893974;28;20618;-63
2022/04/29 01:32:29;;;;;;;12.07;9.95;;;8.20;68.60;;;6.83;67.50;96976.00;4899466;28;20391;-64
2022/04/29 01:34:55;;;;;;;11.82;9.27;;;8.10;68.70;;;6.80;67.77;96973.69;4918155;28;20411;-64
2022/04/29 01:37:21;;;;;;;12.35;10.00;;;8.10;68.80;;;6.73;68.15;96968.19;4892583;28;20352;-64
2022/04/29 01:39:47;;;;;;;15.93;11.25;;;8.10;68.80;;;6.68;68.67;96975.63;4919798;28;20588;-64
2022/04/29 01:42:13;;;;;;;13.93;10.98;;;8.00;68.90;;;6.66;68.50;96974.97;4884149;28;20328;-64
2022/04/29 01:44:40;;;;;;;13.98;10.45;;;8.00;69.20;;;6.64;69.22;96967.25;4900273;28;20580;-63
2022/04/29 01:47:06;;;;;;;14.27;10.77;;;8.10;69.30;;;6.63;68.57;96967.41;4884431;28;20438;-62
2022/04/29 01:49:32;;;;;;;13.73;11.05;;;8.00;69.20;;;6.61;68.64;96970.16;4898631;28;20364;-62
2022/04/29 01:51:59;;;;;;;13.68;11.02;;;8.00;69.50;;;6.58;68.90;96975.69;4881390;28;20348;-62
2022/04/29 01:54:26;;;;;;;14.95;11.18;;;7.90;69.50;;;6.53;68.80;96967.44;4919186;28;20438;-62
2022/04/29 01:56:53;;;;;;;15.00;11.05;;;7.80;69.80;;;6.52;69.07;96962.34;4876067;28;20368;-62
2022/04/29 01:59:19;;;;;;;13.57;11.23;;;7.90;70.00;;;6.48;69.66;96964.41;4888329;28;20327;-62
2022/04/29 02:01:46;;;;;;;15.02;10.40;;;7.80;69.90;;;6.45;69.37;96959.47;4890598;28;20556;-62
2022/04/29 02:04:13;;;;;;;15.00;11.30;;;7.80;69.80;;;6.41;69.82;96965.97;4902968;28;20177;-64
2022/04/29 02:06:39;;;;;;;15.65;10.90;;;7.70;69.90;;;6.35;70.16;96959.53;4885511;28;20526;-63
2022/04/29 02:09:06;;;;;;;16.75;11.80;;;7.70;70.10;;;6.35;69.27;96958.69;4885885;28;20792;-62
2022/04/29 02:11:32;;;;;;;13.93;11.60;;;7.70;70.20;;;6.33;69.28;96960.59;4914784;28;20321;-63
2022/04/29 02:13:58;;;;;;;15.50;12.60;;;7.70;69.80;;;6.29;69.49;96956.63;4886900;28;20368;-62
2022/04/29 02:16:24;;;;;;;15.10;11.82;;;7.60;70.30;;;6.26;70.34;96946.47;4871497;28;20720;-63
2022/04/29 02:18:50;;;;;;;16.75;12.35;;;7.60;70.50;;;6.24;70.49;96943.16;4867957;28;20347;-62
2022/04/29 02:21:16;;;;;;;14.55;11.73;;;7.60;70.50;;;6.23;70.06;96944.13;4903385;28;20643;-63
2022/04/29 02:23:43;;;;;;;14.85;12.38;;;7.60;70.80;;;6.23;71.01;96941.53;4902405;28;20584;-63
2022/04/29 02:26:09;;;;;;;15.27;12.50;;;7.60;70.60;;;6.22;70.91;96945.09;4874791;28;20472;-62
2022/04/29 02:28:35;;;;;;;17.40;12.70;;;7.60;70.90;;;6.20;70.53;96940.03;4886074;28;20539;-63
2022/04/29 02:31:01;;;;;;;22.83;16.48;;;7.60;70.90;;;6.21;70.84;96941.66;4897382;28;20479;-62
2022/04/29 02:33:30;;;;;;;22.10;17.05;;;7.70;70.90;;;6.22;71.52;96937.25;4884501;28;20328;-62
2022/04/29 02:35:56;;;;;;;21.05;15.00;;;7.70;70.90;;;6.21;70.49;96938.22;4871108;28;20501;-61
2022/04/29 02:38:22;;;;;;;16.60;13.35;;;7.70;70.90;;;6.21;71.11;96948.69;4888917;28;20749;-62
2022/04/29 02:40:51;;;;;;;16.23;12.13;;;7.60;70.90;;;6.19;71.50;96942.78;4887884;28;20332;-62
2022/04/29 02:43:20;;;;;;;15.60;10.88;;;7.60;70.50;;;6.14;71.48;96940.59;4888675;28;20364;-62
2022/04/29 02:45:47;;;;;;;45.25;31.20;;;7.60;70.70;;;6.08;70.91;96941.13;4870284;28;20784;-62
2022/04/29 02:48:15;;;;;;;26.25;17.65;;;7.50;70.90;;;6.02;71.38;96939.91;4888367;28;20505;-63
2022/04/29 02:50:41;;;;;;;16.60;12.82;;;7.40;70.80;;;5.98;70.88;96941.16;4873262;28;20528;-62
2022/04/29 02:53:07;;;;;;;17.15;11.15;;;7.40;70.90;;;5.98;71.70;96941.16;4872263;28;20699;-62
2022/04/29 02:55:33;;;;;;;15.05;11.55;;;7.40;70.80;;;5.95;71.86;96928.38;4894620;28;20308;-62
2022/04/29 02:57:59;;;;;;;14.98;11.63;;;7.40;71.10;;;5.93;72.00;96930.31;4893817;28;20374;-62
2022/04/29 03:00:25;;;;;;;17.83;12.80;;;7.40;71.20;;;5.89;72.09;96921.09;4915468;28;20494;-62
2022/04/29 03:02:51;;;;;;;35.70;26.17;;;7.40;71.50;;;5.87;71.31;96922.97;4903656;28;20309;-63
2022/04/29 03:05:17;;;;;;;41.20;29.10;;;7.30;71.70;;;5.84;71.51;96923.25;4872180;28;20352;-62
2022/04/29 03:07:43;;;;;;;19.55;15.23;;;7.30;71.80;;;5.83;72.11;96916.41;4875011;28;20318;-63
2022/04/29 03:10:09;;;;;;;23.65;18.25;;;7.30;71.70;;;5.81;72.33;96910.50;4887941;28;20188;-63
2022/04/29 03:12:35;;;;;;;32.75;23.98;;;7.20;71.70;;;5.79;71.63;96915.03;4871860;28;20355;-63
2022/04/29 03:15:25;;;;;;;30.83;23.63;;;7.30;71.70;;;5.77;72.75;96912.56;4888424;28;20602;-63
2022/04/29 03:20:38;;;;;;;32.72;21.08;;;7.20;72.00;;;5.77;73.29;96906.53;4896772;28;20392;-64
2022/04/29 03:23:04;;;;;;;16.60;12.57;;;7.20;71.80;;;5.77;72.25;96907.34;4888296;28;20321;-63
2022/04/29 03:25:30;;;;;;;15.48;11.80;;;7.30;71.60;;;5.74;71.96;96909.41;4893710;28;20029;-63
2022/04/29 03:27:56;;;;;;;16.80;11.50;;;7.10;71.60;;;5.71;71.76;96912.31;4907646;28;20351;-63
2022/04/29 03:30:22;;;;;;;14.63;11.55;;;7.10;71.70;;;5.69;72.80;96909.84;4853581;28;20333;-63
2022/04/29 03:32:56;;;;;;;23.08;16.58;;;7.10;71.80;;;5.66;74.32;96919.69;4864235;28;20367;-63
2022/04/29 03:35:22;;;;;;;30.30;21.80;;;7.10;71.90;;;5.64;72.06;96917.22;4856590;28;20411;-63
2022/04/29 03:37:51;;;;;;;27.60;19.42;;;7.10;72.40;;;5.62;72.21;96913.13;4879365;28;20772;-63
2022/04/29 03:40:21;;;;;;;25.23;19.33;;;7.10;72.40;;;5.60;73.39;96908.03;4879718;28;20503;-63
2022/04/29 03:42:48;;;;;;;23.50;18.40;;;7.10;72.60;;;5.58;72.95;96911.75;4880141;28;20343;-63
2022/04/29 03:45:14;;;;;;;30.63;22.65;;;7.00;72.50;;;5.57;72.98;96907.50;4903245;28;20565;-64
2022/04/29 03:47:42;;;;;;;15.27;11.55;;;7.00;72.40;;;5.52;73.53;96913.97;4902010;28;20470;-64
2022/04/29 03:50:08;;;;;;;15.50;12.07;;;7.00;72.00;;;5.49;73.19;96914.22;4904682;28;20332;-65
2022/04/29 03:52:34;;;;;;;16.75;12.55;;;7.00;72.20;;;5.48;73.51;96907.38;4869931;28;20499;-65
2022/04/29 03:55:00;;;;;;;16.45;11.80;;;7.00;72.50;;;5.47;73.06;96907.50;4886344;28;20706;-65
2022/04/29 03:57:26;;;;;;;13.65;11.30;;;7.00;72.40;;;5.44;73.13;96911.22;4927935;28;20566;-65
2022/04/29 03:59:53;;;;;;;14.38;11.38;;;6.90;72.20;;;5.42;73.23;96907.91;4925233;28;20354;-65
2022/04/29 04:02:19;;;;;;;18.30;12.88;;;6.90;72.30;;;5.39;72.78;96909.97;4878336;28;20377;-65
2022/04/29 04:04:46;;;;;;;14.10;11.68;;;6.80;72.40;;;5.33;72.59;96910.50;4874868;28;20365;-64
2022/04/29 04:07:12;;;;;;;14.80;11.48;;;6.80;72.20;;;5.30;72.95;96916.00;4890184;28;20403;-64
2022/04/29 04:09:39;;;;;;;16.98;11.55;;;6.80;72.30;;;5.26;73.03;96912.84;4871175;28;20448;-64
2022/04/29 04:12:06;;;;;;;15.10;11.65;;;6.80;72.50;;;5.26;73.19;96915.47;4888950;28;20851;-64
2022/04/29 04:14:32;;;;;;;15.70;12.15;;;6.80;72.70;;;5.26;73.14;96917.25;4908239;28;20648;-64
2022/04/29 04:16:58;;;;;;;16.88;12.13;;;6.80;72.60;;;5.23;73.13;96913.13;4918147;28;20435;-64
2022/04/29 04:19:24;;;;;;;15.80;12.13;;;6.80;72.70;;;5.18;73.84;96920.50;4898412;28;20693;-64
2022/04/29 04:21:50;;;;;;;15.40;12.15;;;6.70;72.90;;;5.19;73.38;96922.16;4860599;28;20311;-64
2022/04/29 04:24:16;;;;;;;15.77;12.35;;;6.70;73.00;;;5.17;74.34;96930.13;4868819;28;20348;-64
2022/04/29 04:26:42;;;;;;;15.77;12.27;;;6.70;72.90;;;5.16;74.12;96938.06;4878168;28;20370;-64
2022/04/29 04:29:08;;;;;;;14.20;12.02;;;6.70;73.30;;;5.16;74.80;96940.69;4902822;28;20573;-64
2022/04/29 04:31:34;;;;;;;14.48;12.15;;;6.70;73.20;;;5.15;74.69;96926.00;4865832;28;20369;-64
2022/04/29 04:34:49;;;;;;;17.63;12.57;;;6.70;73.50;;;5.17;74.30;96942.34;4911362;28;20865;-64
2022/04/29 04:36:52;;;;;;;23.38;14.35;;;6.70;73.60;;;5.20;76.19;96942.06;4890747;28;20363;-64
2022/04/29 04:39:19;;;;;;;48.45;34.60;;;6.80;73.90;;;5.26;75.23;96938.09;4871733;28;20696;-62
2022/04/29 04:41:45;;;;;;;21.95;17.13;;;6.90;74.30;;;5.31;75.32;96936.72;4903796;28;20219;-63
2022/04/29 04:44:11;;;;;;;15.77;12.90;;;7.00;74.00;;;5.35;75.36;96943.31;4885624;28;20455;-63
2022/04/29 04:46:37;;;;;;;17.83;12.77;;;7.10;73.60;;;5.39;75.47;96942.09;4876031;28;20327;-64
2022/04/29 04:49:03;;;;;;;19.23;12.45;;;7.10;73.50;;;5.42;75.48;96943.59;4898865;28;20560;-62
2022/04/29 04:51:29;;;;;;;15.35;12.25;;;7.10;73.40;;;5.43;75.23;96940.88;4929686;28;20047;-62
2022/04/29 04:53:55;;;;;;;16.13;12.00;;;7.10;73.50;;;5.47;75.82;96939.66;4941060;28;20284;-63
2022/04/29 04:56:21;;;;;;;14.73;11.95;;;7.20;73.60;;;5.48;75.52;96948.28;4906920;28;20030;-63
2022/04/29 04:58:47;;;;;;;15.68;12.35;;;7.20;73.70;;;5.49;75.74;96947.34;4923982;28;20712;-63
2022/04/29 05:01:13;;;;;;;18.33;12.85;;;7.30;73.80;;;5.52;76.41;96941.84;4937076;28;20048;-63
2022/04/29 05:03:39;;;;;;;18.70;12.30;;;7.40;73.80;;;5.59;76.41;96952.53;4907724;28;20361;-62
2022/04/29 05:06:05;;;;;;;15.70;12.60;;;7.50;73.60;;;5.65;76.49;96949.38;4952758;28;20091;-63
2022/04/29 05:08:31;;;;;;;19.52;13.25;;;7.60;73.90;;;5.76;76.51;96951.88;4909291;28;20396;-63
2022/04/29 05:10:56;;;;;;;15.23;11.75;;;7.60;73.50;;;5.83;76.53;96963.41;4899687;28;20446;-64
2022/04/29 05:13:22;;;;;;;15.50;12.45;;;7.80;74.00;;;5.92;76.42;96951.34;4936610;28;20283;-63
2022/04/29 05:15:48;;;;;;;15.82;11.68;;;7.90;73.90;;;6.00;77.31;96952.28;4944361;28;20338;-63
2022/04/29 05:18:15;;;;;;;15.50;12.38;;;8.00;73.70;;;6.09;77.26;96948.81;4930999;28;20033;-65
2022/04/29 05:20:41;;;;;;;16.05;12.30;;;8.10;74.20;;;6.20;77.83;96957.47;4922370;28;20033;-68
2022/04/29 05:23:07;;;;;;;19.35;12.07;;;8.30;74.20;;;6.32;77.57;96956.34;4933723;28;20040;-66
2022/04/29 05:25:34;;;;;;;15.32;11.45;;;8.40;74.00;;;6.41;78.39;96953.72;4937028;28;20097;-66
2022/04/29 05:28:00;;;;;;;14.52;11.57;;;8.50;73.70;;;6.53;78.60;96953.53;4923544;28;20029;-65
2022/04/29 05:30:27;;;;;;;14.00;11.05;;;8.70;73.40;;;6.65;78.22;96949.78;4926029;28;20059;-66
2022/04/29 05:32:53;;;;;;;16.10;11.57;;;8.80;72.80;;;6.76;77.99;96947.78;4908124;28;20758;-66
2022/04/29 05:35:19;;;;;;;15.75;11.73;;;9.00;72.10;;;6.91;77.42;96942.94;4944190;28;20038;-66
2022/04/29 05:37:44;;;;;;;14.55;11.57;;;9.10;71.80;;;7.06;77.44;96948.50;4946959;28;20116;-68
2022/04/29 05:42:56;;;;;;;16.30;11.73;;;9.60;69.90;;;7.38;76.91;96941.00;4932606;28;20446;-65
2022/04/29 05:45:22;;;;;;;13.07;11.23;;;9.70;69.30;;;7.54;76.44;96950.00;4935294;28;20569;-65
2022/04/29 05:47:48;;;;;;;16.83;11.88;;;9.90;69.00;;;7.71;76.58;96946.56;4914817;28;20360;-64
2022/04/29 05:50:13;;;;;;;15.55;11.43;;;10.20;68.60;;;7.89;75.90;96955.19;4927863;28;20037;-67
2022/04/29 05:52:39;;;;;;;16.45;11.48;;;10.40;67.90;;;8.08;75.91;96950.75;4944361;28;20403;-65
2022/04/29 05:55:06;;;;;;;12.68;11.32;;;10.70;67.20;;;8.25;75.52;96958.59;4935588;28;20427;-66
2022/04/29 05:57:34;;;;;;;14.73;10.77;;;10.80;66.00;;;8.45;74.82;96956.63;4933801;28;20278;-68
2022/04/29 06:00:00;;;;;;;12.52;10.40;;;11.10;65.30;;;8.64;74.48;96952.16;4917468;28;20343;-66
2022/04/29 06:02:26;;;;;;;13.23;11.02;;;11.30;64.50;;;8.83;73.63;96944.06;4886711;28;20347;-66
2022/04/29 06:04:54;;;;;;;11.52;10.32;;;11.50;63.00;;;9.02;73.22;96943.78;4933530;28;20391;-67
2022/04/29 06:07:21;;;;;;;10.60;9.10;;;11.70;62.10;;;9.21;72.15;96950.59;4931349;28;20354;-68
2022/04/29 06:09:48;;;;;;;11.40;9.55;;;11.90;60.80;;;9.40;71.45;96945.06;4947555;28;20520;-64
2022/04/29 06:12:14;;;;;;;10.35;9.27;;;12.20;59.90;;;9.59;69.71;96943.13;4914271;28;20333;-64
2022/04/29 06:14:41;;;;;;;12.88;8.90;;;12.40;59.00;;;9.77;69.61;96949.91;4873780;28;20503;-65
2022/04/29 06:17:07;;;;;;;9.82;8.82;;;12.60;57.70;;;9.93;69.49;96956.13;4886876;28;20652;-67
2022/04/29 06:19:34;;;;;;;12.00;8.70;;;12.70;57.50;;;10.11;68.63;96954.16;4871537;28;20277;-69
2022/04/29 06:22:01;;;;;;;10.82;9.68;;;13.00;56.70;;;10.28;68.98;96945.31;4881859;28;20367;-67
2022/04/29 06:24:27;;;;;;;12.40;8.45;;;13.20;57.20;;;10.47;68.41;96949.41;4885530;28;20497;-67
2022/04/29 06:26:53;;;;;;;10.60;9.15;;;13.50;56.50;;;10.66;67.50;96950.84;4882172;28;20573;-65
2022/04/29 06:29:19;;;;;;;9.63;8.60;;;13.70;55.40;;;10.81;67.45;96953.59;4899904;28;20423;-65
2022/04/29 06:31:45;;;;;;;10.95;8.32;;;13.80;55.50;;;10.99;66.72;96947.09;4884569;28;20601;-65
2022/04/29 06:34:12;;;;;;;9.25;7.63;;;14.00;54.70;;;11.13;66.00;96944.75;4949174;28;20493;-65
2022/04/29 06:36:45;;;;;;;10.25;8.13;;;14.10;54.10;;;11.24;65.29;96947.81;4963398;28;20179;-67
2022/04/29 06:39:11;;;;;;;8.55;7.65;;;14.10;54.00;;;11.34;64.04;96947.63;4890769;28;20394;-67
2022/04/29 06:41:38;;;;;;;11.65;8.55;;;14.10;53.40;;;11.41;63.26;96943.28;4876650;28;20360;-67
2022/04/29 06:44:04;;;;;;;8.75;7.57;;;14.20;52.50;;;11.47;62.49;96947.88;4898306;28;20808;-64
2022/04/29 06:46:30;;;;;;;14.60;8.23;;;14.20;52.00;;;11.53;62.92;96951.59;4872059;28;20508;-65
2022/04/29 06:48:56;;;;;;;10.82;7.32;;;14.40;52.30;;;11.59;62.54;96951.75;4884234;28;20329;-64
2022/04/29 06:51:23;;;;;;;12.88;8.30;;;14.40;51.90;;;11.69;62.55;96956.78;4887807;28;20359;-65
2022/04/29 06:53:49;;;;;;;10.27;8.30;;;14.70;52.10;;;11.82;62.60;96958.88;4880933;28;20045;-64
2022/04/29 06:56:15;;;;;;;8.52;7.63;;;15.00;52.00;;;11.94;61.96;96965.38;4881491;28;20363;-64
2022/04/29 06:58:41;;;;;;;9.20;8.15;;;15.10;51.10;;;12.06;62.35;96971.88;4870206;28;20341;-64
2022/04/29 07:01:07;;;;;;;9.25;8.32;;;15.20;51.70;;;12.20;61.87;96976.38;4909097;28;20346;-65
2022/04/29 07:03:33;;;;;;;11.70;8.30;;;15.30;50.80;;;12.29;62.25;96978.97;4895827;28;20357;-65
2022/04/29 07:06:01;;;;;;;9.50;8.05;;;15.40;51.40;;;12.41;61.27;96969.59;4896802;28;20742;-64
2022/04/29 07:08:30;;;;;;;9.50;7.75;;;15.60;50.40;;;12.53;60.42;96970.81;4868283;28;20403;-64
2022/04/29 07:10:56;;;;;;;9.07;7.85;;;15.70;48.90;;;12.67;60.44;96977.94;4884605;28;20369;-64
2022/04/29 07:13:23;;;;;;;9.00;7.53;;;16.00;48.70;;;12.84;60.02;96968.84;4893873;28;20446;-63
2022/04/29 07:15:49;;;;;;;14.10;7.90;;;16.20;48.50;;;13.00;59.45;96972.31;4888079;28;20550;-66
2022/04/29 07:18:16;;;;;;;9.68;7.95;;;16.40;48.40;;;13.16;60.24;96966.84;4891077;28;20275;-66
2022/04/29 07:20:43;;;;;;;9.90;7.90;;;16.50;48.80;;;13.31;59.33;96969.50;4906022;28;20448;-65
2022/04/29 07:23:09;;;;;;;8.65;7.70;;;16.70;47.90;;;13.49;59.82;96962.81;4889169;28;20368;-66
2022/04/29 07:25:35;;;;;;;11.32;7.72;;;17.10;47.60;;;13.70;58.38;96955.91;4887183;28;20311;-66
2022/04/29 07:28:01;;;;;;;11.88;7.82;;;17.10;47.30;;;13.92;58.74;96952.28;4902786;28;20344;-64
2022/04/29 07:30:27;;;;;;;8.73;7.82;;;17.60;45.80;;;14.19;57.89;96947.22;4875261;28;20392;-64
2022/04/29 07:32:54;;;;;;;11.68;7.93;;;18.10;45.00;;;14.46;57.55;96937.69;4905468;28;20346;-65
2022/04/29 07:43:38;;;;;;;6.70;6.03;;;19.60;40.10;;;15.68;53.13;96925.50;4893697;28;20531;-64
2022/04/29 07:46:05;;;;;;;7.18;6.18;;;19.80;39.50;;;15.97;51.95;96920.84;4878574;28;20477;-65
2022/04/29 07:48:31;;;;;;;9.30;6.60;;;20.30;38.70;;;16.23;51.96;96920.84;4904715;28;20364;-64
2022/04/29 07:50:58;;;;;;;7.97;5.93;;;20.50;38.00;;;16.53;51.39;96921.28;4892022;28;20447;-65
2022/04/29 07:53:24;;;;;;;7.38;6.18;;;20.90;38.50;;;16.82;50.58;96920.03;4887062;28;20423;-65
2022/04/29 07:55:50;;;;;;;9.02;5.88;;;21.10;37.80;;;17.13;50.61;96921.97;4873566;28;20349;-63
2022/04/29 07:58:16;;;;;;;9.32;5.60;;;21.60;37.80;;;17.45;49.49;96909.56;4892571;28;20331;-63
2022/04/29 08:00:43;;;;;;;6.18;5.45;;;21.80;35.30;;;17.65;46.99;96910.28;4910146;28;20841;-65
2022/04/29 08:03:09;;;;;;;11.55;5.40;;;21.90;34.20;;;17.97;46.39;96899.66;4885803;28;20344;-64
2022/04/29 08:05:35;;;;;;;9.38;5.68;;;22.20;33.70;;;18.24;45.98;96898.44;4907429;28;20540;-66
2022/04/29 08:08:02;;;;;;;7.65;5.28;;;22.50;33.10;;;18.50;43.79;96894.72;4882732;28;20471;-66
2022/04/29 08:10:29;;;;;;;7.38;5.78;;;22.70;32.30;;;18.71;43.46;96890.84;4869027;28;20381;-67
2022/04/29 08:12:59;;;;;;;7.85;5.90;;;22.70;33.10;;;18.98;43.70;96884.19;4888861;28;20378;-64
2022/04/29 08:15:30;;;;;;;6.73;5.07;;;23.10;33.10;;;19.26;41.50;96881.00;4879994;28;20377;-64
2022/04/29 08:17:57;;;;;;;5.93;5.07;;;23.50;32.10;;;19.47;42.66;96893.06;4880415;28;20300;-64
2022/04/29 08:20:23;;;;;;;5.40;4.60;;;23.70;31.50;;;19.76;41.11;96886.09;4893122;28;20235;-65
2022/04/29 08:22:49;;;;;;;6.47;5.20;;;24.00;28.70;;;20.00;41.43;96876.28;4887994;28;20349;-65
2022/04/29 08:25:18;;;;;;;8.73;5.10;;;24.20;30.30;;;20.20;39.63;96875.97;4888034;28;20429;-65
2022/04/29 08:27:45;;;;;;;6.60;5.22;;;24.40;29.00;;;20.39;39.38;96879.38;4889988;28;20811;-66
2022/04/29 08:30:12;;;;;;;6.00;4.90;;;24.50;28.00;;;20.55;39.18;96873.34;4872789;28;20352;-67
2022/04/29 08:32:43;;;;;;;6.85;5.18;;;24.50;28.60;;;20.77;37.47;96871.69;4887840;28;20330;-67
2022/04/29 08:35:10;;;;;;;9.00;5.07;;;24.70;29.10;;;20.97;37.31;96865.16;4882156;28;20790;-66
2022/04/29 08:37:40;;;;;;;6.43;4.55;;;24.70;26.80;;;20.96;35.72;96866.22;4886380;28;20630;-66
2022/04/29 08:40:07;;;;;;;;;;;24.50;27.80;;;21.12;34.68;96862.81;4922434;28;20476;-66
2022/04/29 08:42:40;;;;;;;6.22;4.38;;;25.00;27.60;;;21.24;37.21;96866.28;4888996;28;20192;-67
2022/04/29 08:45:17;;;;;;;7.07;4.45;;;24.90;27.10;;;21.44;34.27;96849.81;4869700;28;20313;-64
2022/04/29 08:47:44;;;;;;;7.10;4.50;;;25.30;27.10;;;21.57;35.37;96840.69;4886282;28;20292;-64
2022/04/29 08:50:12;;;;;;;5.85;3.97;;;25.00;25.90;;;21.67;34.73;96838.16;4906765;28;20361;-63
2022/04/29 08:52:39;;;;;;;4.55;3.92;;;25.40;25.80;;;21.82;34.38;96835.78;4886014;28;20308;-64
2022/04/29 09:00:41;;;;;;;6.28;3.53;;;25.50;24.00;;;22.08;32.31;96833.53;4908109;28;20708;-64
2022/04/29 09:03:18;;;;;;;4.07;3.50;;;25.10;23.80;;;22.01;30.02;96822.97;4888515;28;20185;-66
2022/04/29 09:05:46;;;;;;;5.20;3.80;;;25.00;24.30;;;21.97;30.85;96827.19;4901267;28;21047;-66
2022/04/29 09:08:16;;;;;;;4.60;3.47;;;24.90;23.50;;;22.05;30.69;96823.31;4861498;28;20430;-64
2022/04/29 09:10:56;;;;;;;;;;;25.30;23.50;;;22.03;28.58;96810.13;4899446;28;20370;-64
2022/04/29 09:13:35;;;;;;;4.40;3.55;;;24.90;23.40;;;21.89;29.34;96820.34;4919052;28;20438;-64
2022/04/29 09:16:12;;;;;;;5.57;4.00;;;24.50;23.90;;;21.64;29.22;96826.09;4857715;28;20367;-64
2022/04/29 09:18:49;;;;;;;4.10;3.28;;;24.20;24.90;;;21.55;28.91;96829.41;4887989;28;20410;-64
2022/04/29 09:21:22;;;;;;;4.47;3.42;;;24.40;24.10;;;21.61;30.01;96812.38;4920135;28;20307;-68
2022/04/29 09:23:59;;;;;;;5.22;3.80;;;25.10;24.30;;;21.89;30.76;96819.53;4889193;28;20367;-68
2022/04/29 09:26:38;;;;;;;6.13;3.65;;;25.60;23.60;;;22.14;28.67;96817.28;4896722;28;20352;-66
2022/04/29 09:29:19;;;;;;;4.80;3.80;;;26.10;23.30;;;22.38;29.27;96817.09;4888079;28;20396;-65
2022/04/29 09:31:56;;;;;;;4.82;3.97;;;26.50;23.10;;;22.62;30.17;96822.00;4895699;28;20778;-66
2022/04/29 09:34:22;;;;;;;7.30;3.92;;;26.70;23.60;;;22.82;30.80;96818.00;4899695;28;20381;-67
2022/04/29 09:36:49;;;;;;;7.60;3.90;;;27.20;22.70;;;23.15;29.88;96812.53;4877808;28;20359;-66
2022/04/29 09:39:27;;;;;;;9.77;3.90;;;27.50;22.70;;;23.35;28.98;96813.81;4893154;28;20351;-65
2022/04/29 09:42:01;;;;;;;4.97;3.97;;;27.50;21.10;;;23.48;27.69;96816.09;4912153;28;20438;-65
2022/04/29 09:44:28;;;;;;;6.00;3.78;;;27.70;21.60;;;23.74;29.54;96809.09;4894363;28;20374;-66
2022/04/29 09:46:54;;;;;;;5.70;3.55;;;28.20;21.80;;;23.91;28.72;96806.31;4947081;28;20368;-63
2022/04/29 09:49:21;;;;;;;6.93;3.58;;;28.20;21.00;;;24.02;28.36;96806.13;4887958;28;20298;-66
2022/04/29 09:51:53;;;;;;;7.70;4.18;;;28.40;21.20;;;24.09;27.99;96801.34;4870190;28;20384;-65
2022/04/29 09:54:25;;;;;;;5.78;3.67;;;28.30;20.90;;;24.14;27.62;96797.88;4905374;28;20584;-65
2022/04/29 09:57:11;;;;;;;4.78;3.75;;;28.30;21.00;;;24.27;26.07;96805.50;4919603;28;20366;-67
2022/04/29 09:59:59;;;;;;;7.13;4.53;;;28.50;20.40;;;24.28;27.69;96806.31;4870169;28;20568;-69
2022/04/29 10:02:29;;;;;;;6.68;3.63;;;28.30;20.30;;;24.22;28.03;96804.69;4903842;28;20547;-68
2022/04/29 10:04:55;;;;;;;5.07;3.78;;;28.30;20.20;;;24.32;27.78;96794.81;4878008;28;20500;-69
2022/04/29 10:07:23;;;;;;;6.03;4.00;;;29.00;19.70;;;24.54;27.53;96807.31;4884602;28;20330;-68
2022/04/29 10:09:51;;;;;;;7.00;5.55;;;29.50;19.80;;;24.76;26.75;96794.53;4885351;28;20368;-69
2022/04/29 10:12:21;;;;;;;6.40;4.20;;;29.80;19.00;;;25.00;25.48;96801.13;4872445;28;20708;-68
2022/04/29 10:14:49;;;;;;;5.88;3.50;;;30.40;18.40;;;25.14;26.61;96781.78;4906340;28;20369;-68
2022/04/29 10:22:53;;;;;;;6.68;3.80;;;31.20;18.50;;;25.82;27.14;96777.09;4906968;28;20312;-69
2022/04/29 10:25:26;;;;;;;7.47;3.92;;;31.80;18.30;;;26.06;25.15;96780.84;4871237;28;20419;-68
2022/04/29 10:27:53;;;;;;;6.35;3.67;;;31.80;18.10;;;26.17;27.32;96787.84;4876629;28;20086;-67
2022/04/29 10:30:30;;;;;;;5.50;4.10;;;32.10;18.10;;;26.42;25.51;96778.91;4873777;28;20349;-68
2022/04/29 10:33:09;;;;;;;4.32;3.55;;;32.70;18.20;;;26.73;25.46;96768.88;4895942;28;20493;-68
2022/04/29 10:35:50;;;;;;;6.03;3.90;;;32.80;17.50;;;26.97;24.63;96781.72;4904073;28;20325;-67
2022/04/29 10:38:18;;;;;;;5.10;3.40;;;33.00;17.70;;;27.31;25.76;96766.44;4914277;28;20381;-68
2022/04/29 10:40:45;;;;;;;4.78;2.95;;;33.50;16.50;;;27.70;25.93;96771.91;4902308;28;20337;-66
2022/04/29 10:43:14;;;;;;;5.18;3.88;;;34.10;16.40;;;27.88;25.09;96767.69;4890490;28;20414;-66
2022/04/29 10:46:05;;;;;;;4.40;3.83;;;33.70;16.10;;;27.84;23.09;96766.66;4876144;28;20496;-66
2022/04/29 10:48:33;;;;;;;6.60;3.85;;;33.20;16.70;;;28.12;25.47;96761.53;4913394;28;20718;-66